createdAt,value
2018-01-30T00:02:01.481Z,2.55
2018-01-30T00:07:06.051Z,2.47
2018-01-30T00:12:10.478Z,2.67
2018-01-30T00:17:14.366Z,2.90
2018-01-30T00:22:18.228Z,2.80
2018-01-30T00:27:22.662Z,2.90
2018-01-30T00:32:25.743Z,2.97
2018-01-30T00:37:30.016Z,3.53
2018-01-30T00:42:34.664Z,3.53
2018-01-30T00:47:37.743Z,3.47
2018-01-30T00:52:41.244Z,3.43
2018-01-30T00:57:45.677Z,4.00
2018-01-30T01:02:50.439Z,3.73
2018-01-30T01:07:54.709Z,4.33
2018-01-30T01:13:00.258Z,4.90
2018-01-30T01:18:04.728Z,5.13
2018-01-30T01:23:07.881Z,4.63
2018-01-30T01:28:12.107Z,5.40
2018-01-30T01:33:16.581Z,5.72
2018-01-30T01:38:20.588Z,5.07
2018-01-30T01:43:24.529Z,6.30
2018-01-30T01:48:27.695Z,6.03
2018-01-30T01:53:31.178Z,5.50
2018-01-30T01:58:34.311Z,7.23
2018-01-30T02:03:37.400Z,7.77
2018-01-30T02:08:41.388Z,9.00
2018-01-30T02:13:46.237Z,9.70
2018-01-30T02:18:50.254Z,8.43
2018-01-30T02:23:54.483Z,9.90
2018-01-30T02:28:58.358Z,12.67
2018-01-30T02:34:01.436Z,12.13
2018-01-30T02:39:04.588Z,12.03
2018-01-30T02:44:07.724Z,13.63
2018-01-30T02:49:12.168Z,13.07
2018-01-30T02:54:16.116Z,12.40
2018-01-30T02:59:20.182Z,12.73
2018-01-30T03:04:23.293Z,12.40
2018-01-30T03:09:28.671Z,12.02
2018-01-30T03:14:32.535Z,14.32
2018-01-30T03:19:36.554Z,15.27
2018-01-30T03:24:42.787Z,16.13
2018-01-30T03:29:48.324Z,15.83
2018-01-30T03:34:52.719Z,13.80
2018-01-30T03:39:55.873Z,13.87
2018-01-30T03:44:59.821Z,13.17
2018-01-30T03:50:03.901Z,12.30
2018-01-30T03:55:08.588Z,12.73
2018-01-30T04:00:12.252Z,11.30
2018-01-30T04:05:16.553Z,12.37
2018-01-30T04:10:20.949Z,11.17
2018-01-30T04:15:24.812Z,11.93
2018-01-30T04:20:29.330Z,11.63
2018-01-30T04:25:32.872Z,11.60
2018-01-30T04:30:37.895Z,10.80
2018-01-30T04:35:42.352Z,11.17
2018-01-30T04:40:47.132Z,10.47
2018-01-30T04:45:51.728Z,10.80
2018-01-30T04:50:55.604Z,10.43
2018-01-30T04:55:59.587Z,9.40
2018-01-30T05:01:02.761Z,10.50
2018-01-30T05:06:05.879Z,9.70
2018-01-30T05:11:09.726Z,12.33
2018-01-30T05:16:14.320Z,10.50
2018-01-30T05:21:17.448Z,12.07
2018-01-30T05:26:21.682Z,10.70
2018-01-30T05:31:25.702Z,10.67
2018-01-30T05:36:29.668Z,12.27
2018-01-30T05:41:34.541Z,12.67
2018-01-30T05:46:37.681Z,12.50
2018-01-30T05:51:40.799Z,12.50
2018-01-30T05:56:45.693Z,11.97
2018-01-30T06:01:50.018Z,12.30
2018-01-30T06:06:54.520Z,12.97
2018-01-30T06:11:59.625Z,13.00
2018-01-30T06:17:03.138Z,12.10
2018-01-30T06:22:07.126Z,14.63
2018-01-30T06:27:11.023Z,14.23
2018-01-30T06:32:14.154Z,14.03
2018-01-30T06:37:17.627Z,13.43
2018-01-30T06:42:20.758Z,13.87
2018-01-30T06:47:27.788Z,13.57
2018-01-30T06:52:32.045Z,13.97
2018-01-30T06:57:35.912Z,13.60
2018-01-30T07:02:39.057Z,15.00
2018-01-30T07:07:43.307Z,14.60
2018-01-30T07:12:46.451Z,12.40
2018-01-30T07:17:49.559Z,14.53
2018-01-30T07:22:53.043Z,17.60
2018-01-30T07:27:56.157Z,18.20
2018-01-30T07:32:59.612Z,15.85
2018-01-30T07:38:03.475Z,15.70
2018-01-30T07:43:07.319Z,13.88
2018-01-30T07:48:10.391Z,13.63
2018-01-30T07:53:14.621Z,14.63
2018-01-30T07:58:18.180Z,13.57
2018-01-30T08:03:21.265Z,12.47
2018-01-30T08:08:27.084Z,13.00
2018-01-30T08:13:30.934Z,12.90
2018-01-30T08:18:34.055Z,12.67
2018-01-30T08:23:38.421Z,12.63
2018-01-30T08:28:41.455Z,11.43
2018-01-30T08:33:44.541Z,12.97
2018-01-30T08:38:47.641Z,10.60
2018-01-30T08:43:50.730Z,11.87
2018-01-30T08:48:54.256Z,9.40
2018-01-30T08:53:57.401Z,9.33
2018-01-30T08:59:00.576Z,9.53
2018-01-30T09:04:03.729Z,9.32
2018-01-30T09:09:06.913Z,8.50
2018-01-30T09:14:10.071Z,7.43
2018-01-30T09:19:13.162Z,7.37
2018-01-30T09:24:17.604Z,11.90
2018-01-30T09:29:20.675Z,9.07
2018-01-30T09:34:23.761Z,10.60
2018-01-30T09:39:26.848Z,7.73
2018-01-30T09:44:30.748Z,6.93
2018-01-30T09:49:34.686Z,6.82
2018-01-30T09:54:38.543Z,6.37
2018-01-30T09:59:42.390Z,5.67
2018-01-30T10:04:47.185Z,5.87
2018-01-30T10:09:51.775Z,5.60
2018-01-30T10:14:55.251Z,5.12
2018-01-30T10:19:59.105Z,5.70
2018-01-30T10:25:02.581Z,5.87
2018-01-30T10:30:05.663Z,5.73
2018-01-30T10:35:09.508Z,6.07
2018-01-30T10:40:12.588Z,5.70
2018-01-30T10:45:16.799Z,5.10
2018-01-30T10:50:19.887Z,5.50
2018-01-30T10:55:23.808Z,4.80
2018-01-30T11:00:33.968Z,5.20
2018-01-30T11:05:37.056Z,4.70
2018-01-30T11:10:42.595Z,4.67
2018-01-30T11:15:45.682Z,5.03
2018-01-30T11:20:48.777Z,4.83
2018-01-30T11:25:53.008Z,4.53
2018-01-30T11:30:57.455Z,4.15
2018-01-30T11:36:00.556Z,4.50
2018-01-30T11:41:04.675Z,4.37
2018-01-30T11:46:09.134Z,4.17
2018-01-30T11:51:15.729Z,4.17
2018-01-30T11:56:20.190Z,4.83
2018-01-30T12:01:24.640Z,4.43
2018-01-30T12:06:29.119Z,4.87
2018-01-30T12:11:33.556Z,4.33
2018-01-30T12:16:37.040Z,4.20
2018-01-30T12:21:40.122Z,4.93
2018-01-30T12:26:44.389Z,5.47
2018-01-30T12:31:47.486Z,5.10
2018-01-30T12:36:52.572Z,5.60
2018-01-30T12:41:55.664Z,5.20
2018-01-30T12:47:00.152Z,5.30
2018-01-30T12:52:03.708Z,5.33
2018-01-30T12:57:08.180Z,5.20
2018-01-30T13:02:13.488Z,4.80
2018-01-30T13:07:17.976Z,4.87
2018-01-30T13:12:22.418Z,4.23
2018-01-30T13:17:26.019Z,4.53
2018-01-30T13:22:30.082Z,3.47
2018-01-30T13:27:34.640Z,3.87
2018-01-30T13:32:40.132Z,3.90
2018-01-30T13:37:43.233Z,3.77
2018-01-30T13:42:46.332Z,3.87
2018-01-30T13:47:50.571Z,3.28
2018-01-30T13:52:53.665Z,5.10
2018-01-30T13:57:58.960Z,3.83
2018-01-30T14:03:03.401Z,2.63
2018-01-30T14:08:07.856Z,3.33
2018-01-30T14:13:12.299Z,3.07
2018-01-30T14:18:15.788Z,3.80
2018-01-30T14:23:19.655Z,4.07
2018-01-30T14:28:23.901Z,3.90
2018-01-30T14:33:29.377Z,3.57
2018-01-30T14:38:33.825Z,3.43
2018-01-30T14:43:37.689Z,3.90
2018-01-30T14:48:41.548Z,3.63
2018-01-30T14:53:45.995Z,3.10
2018-01-30T14:58:50.580Z,3.77
2018-01-30T15:03:53.718Z,3.83
2018-01-30T15:08:56.804Z,4.20
2018-01-30T15:14:01.304Z,3.80
2018-01-30T15:19:07.066Z,4.00
2018-01-30T15:24:11.428Z,4.60
2018-01-30T15:29:15.284Z,4.10
2018-01-30T15:34:20.679Z,3.90
2018-01-30T15:39:24.907Z,4.60
2018-01-30T15:44:28.768Z,4.23
2018-01-30T15:49:33.224Z,5.00
2018-01-30T15:54:37.762Z,6.53
2018-01-30T15:59:42.609Z,10.10
2018-01-30T16:04:47.181Z,9.40
2018-01-30T16:09:50.246Z,8.07
2018-01-30T16:14:54.687Z,9.60
2018-01-30T16:19:58.189Z,6.20
2018-01-30T16:25:02.045Z,6.50
2018-01-30T16:30:05.142Z,5.20
2018-01-30T16:35:08.233Z,4.23
2018-01-30T16:40:12.101Z,4.13
2018-01-30T16:45:15.981Z,3.57
2018-01-30T16:50:19.077Z,4.50
2018-01-30T16:55:22.173Z,3.10
2018-01-30T17:00:26.020Z,3.20
2018-01-30T17:05:30.476Z,3.77
2018-01-30T17:10:34.928Z,5.57
2018-01-30T17:15:39.371Z,5.63
2018-01-30T17:20:42.461Z,7.63
2018-01-30T17:25:46.324Z,5.13
2018-01-30T17:30:49.452Z,5.40
2018-01-30T17:35:53.457Z,5.50
2018-01-30T17:40:57.891Z,15.47
2018-01-30T17:46:02.340Z,8.27
2018-01-30T17:51:05.450Z,5.67
2018-01-30T17:56:09.316Z,6.40
2018-01-30T18:01:13.587Z,6.15
2018-01-30T18:06:17.444Z,5.87
2018-01-30T18:11:21.670Z,6.60
2018-01-30T18:16:25.889Z,4.60
2018-01-30T18:21:30.159Z,5.17
2018-01-30T18:26:35.526Z,4.83
2018-01-30T18:31:39.375Z,32.57
2018-01-30T18:36:44.003Z,6.03
2018-01-30T18:41:48.403Z,5.47
2018-01-30T18:46:51.892Z,5.50
2018-01-30T18:51:55.747Z,5.87
2018-01-30T18:56:59.600Z,8.37
2018-01-30T19:02:03.663Z,7.83
2018-01-30T19:07:06.739Z,7.23
2018-01-30T19:12:11.183Z,7.30
2018-01-30T19:17:15.028Z,7.70
2018-01-30T19:22:18.160Z,6.03
2018-01-30T19:27:22.592Z,7.47
2018-01-30T19:32:27.057Z,6.30
2018-01-30T19:37:31.268Z,5.83
2018-01-30T19:42:34.350Z,5.13
2018-01-30T19:47:38.943Z,3.93
2018-01-30T19:52:43.370Z,4.00
2018-01-30T19:57:47.951Z,4.10
2018-01-30T20:02:52.395Z,3.97
2018-01-30T20:07:56.244Z,4.00
2018-01-30T20:13:00.304Z,4.15
2018-01-30T20:18:04.782Z,4.03
2018-01-30T20:23:09.362Z,4.37
2018-01-30T20:28:13.810Z,3.37
2018-01-30T20:33:18.235Z,3.77
2018-01-30T20:38:22.671Z,3.60
2018-01-30T20:43:26.523Z,3.90
2018-01-30T20:48:29.606Z,3.90
2018-01-30T20:53:33.458Z,4.10
2018-01-30T20:58:37.890Z,4.27
2018-01-30T21:03:42.479Z,4.10
2018-01-30T21:08:46.941Z,4.20
2018-01-30T21:13:51.371Z,4.40
2018-01-30T21:18:55.608Z,4.60
2018-01-30T21:24:00.033Z,4.20
2018-01-30T21:29:03.889Z,4.20
2018-01-30T21:34:07.354Z,3.90
2018-01-30T21:39:11.942Z,3.97
2018-01-30T21:44:16.367Z,4.00
2018-01-30T21:49:20.945Z,4.37
2018-01-30T21:54:24.431Z,4.83
2018-01-30T21:59:28.874Z,4.90
2018-01-30T22:04:31.959Z,5.07
2018-01-30T22:09:36.393Z,5.37
2018-01-30T22:14:40.819Z,5.40
2018-01-30T22:19:45.248Z,5.50
2018-01-30T22:24:49.687Z,5.70
2018-01-30T22:29:52.758Z,5.60
2018-01-30T22:34:56.258Z,6.17
2018-01-30T22:40:00.112Z,5.90
2018-01-30T22:45:03.961Z,5.67
